sensor_id;sensor_type;location;lat;lon;timestamp;P1;durP1;ratioP1;P2;durP2;ratioP2
70733;SDS011;58320;48.804;9.252;2023-03-12T00:00:01;10.02;;;5.95;;
70733;SDS011;58320;48.804;9.252;2023-03-12T00:02:32;13.15;;;6.03;;
70733;SDS011;58320;48.804;9.252;2023-03-12T00:04:58;15.77;;;5.60;;
70733;SDS011;58320;48.804;9.252;2023-03-12T00:07:23;10.52;;;5.22;;
70733;SDS011;58320;48.804;9.252;2023-03-12T00:09:49;9.93;;;5.50;;
70733;SDS011;58320;48.804;9.252;2023-03-12T00:12:15;11.25;;;5.28;;
70733;SDS011;58320;48.804;9.252;2023-03-12T00:14:40;12.33;;;6.03;;
70733;SDS011;58320;48.804;9.252;2023-03-12T00:17:06;9.90;;;5.27;;
70733;SDS011;58320;48.804;9.252;2023-03-12T00:19:32;9.25;;;5.00;;
70733;SDS011;58320;48.804;9.252;2023-03-12T00:21:58;13.30;;;5.63;;
70733;SDS011;58320;48.804;9.252;2023-03-12T00:24:23;10.20;;;5.47;;
70733;SDS011;58320;48.804;9.252;2023-03-12T00:26:49;10.83;;;5.80;;
70733;SDS011;58320;48.804;9.252;2023-03-12T00:29:15;12.07;;;5.72;;
70733;SDS011;58320;48.804;9.252;2023-03-12T00:31:40;11.53;;;5.80;;
70733;SDS011;58320;48.804;9.252;2023-03-12T00:34:06;12.88;;;5.30;;
70733;SDS011;58320;48.804;9.252;2023-03-12T00:36:33;10.75;;;5.53;;
70733;SDS011;58320;48.804;9.252;2023-03-12T00:38:59;9.93;;;4.77;;
70733;SDS011;58320;48.804;9.252;2023-03-12T00:41:26;8.20;;;4.57;;
70733;SDS011;58320;48.804;9.252;2023-03-12T00:43:52;11.57;;;5.47;;
70733;SDS011;58320;48.804;9.252;2023-03-12T00:46:18;10.50;;;5.80;;
70733;SDS011;58320;48.804;9.252;2023-03-12T00:48:44;11.07;;;5.60;;
70733;SDS011;58320;48.804;9.252;2023-03-12T00:51:11;10.35;;;5.50;;
70733;SDS011;58320;48.804;9.252;2023-03-12T00:53:37;8.18;;;4.72;;
70733;SDS011;58320;48.804;9.252;2023-03-12T00:56:03;11.20;;;5.57;;
70733;SDS011;58320;48.804;9.252;2023-03-12T00:58:29;10.73;;;5.68;;
70733;SDS011;58320;48.804;9.252;2023-03-12T01:00:55;10.95;;;5.25;;
70733;SDS011;58320;48.804;9.252;2023-03-12T01:03:21;8.63;;;4.90;;
70733;SDS011;58320;48.804;9.252;2023-03-12T01:05:47;10.47;;;5.70;;
70733;SDS011;58320;48.804;9.252;2023-03-12T01:08:18;10.50;;;5.07;;
70733;SDS011;58320;48.804;9.252;2023-03-12T01:10:44;9.77;;;5.50;;
70733;SDS011;58320;48.804;9.252;2023-03-12T01:13:10;11.18;;;5.57;;
70733;SDS011;58320;48.804;9.252;2023-03-12T01:15:36;10.07;;;4.87;;
70733;SDS011;58320;48.804;9.252;2023-03-12T01:18:02;7.97;;;4.78;;
70733;SDS011;58320;48.804;9.252;2023-03-12T01:20:28;9.55;;;5.07;;
70733;SDS011;58320;48.804;9.252;2023-03-12T01:22:54;11.57;;;5.53;;
70733;SDS011;58320;48.804;9.252;2023-03-12T01:25:19;9.00;;;5.07;;
70733;SDS011;58320;48.804;9.252;2023-03-12T01:27:45;10.80;;;5.30;;
70733;SDS011;58320;48.804;9.252;2023-03-12T01:30:11;10.02;;;5.40;;
70733;SDS011;58320;48.804;9.252;2023-03-12T01:32:37;12.25;;;5.88;;
70733;SDS011;58320;48.804;9.252;2023-03-12T01:35:03;10.13;;;5.17;;
70733;SDS011;58320;48.804;9.252;2023-03-12T01:37:30;10.45;;;5.25;;
70733;SDS011;58320;48.804;9.252;2023-03-12T01:39:57;10.15;;;5.07;;
70733;SDS011;58320;48.804;9.252;2023-03-12T01:42:23;10.38;;;5.10;;
70733;SDS011;58320;48.804;9.252;2023-03-12T01:47:22;11.80;;;5.32;;
70733;SDS011;58320;48.804;9.252;2023-03-12T01:49:50;9.52;;;4.75;;
70733;SDS011;58320;48.804;9.252;2023-03-12T01:52:19;11.43;;;5.03;;
70733;SDS011;58320;48.804;9.252;2023-03-12T02:00:32;7.43;;;4.22;;
70733;SDS011;58320;48.804;9.252;2023-03-12T02:02:59;10.18;;;4.88;;
70733;SDS011;58320;48.804;9.252;2023-03-12T02:08:13;8.43;;;4.28;;
70733;SDS011;58320;48.804;9.252;2023-03-12T02:10:41;9.68;;;5.43;;
70733;SDS011;58320;48.804;9.252;2023-03-12T02:13:08;12.90;;;5.15;;
70733;SDS011;58320;48.804;9.252;2023-03-12T02:15:35;12.48;;;5.93;;
70733;SDS011;58320;48.804;9.252;2023-03-12T02:18:02;11.23;;;6.00;;
70733;SDS011;58320;48.804;9.252;2023-03-12T02:20:35;12.88;;;6.30;;
70733;SDS011;58320;48.804;9.252;2023-03-12T02:23:11;11.45;;;5.75;;
70733;SDS011;58320;48.804;9.252;2023-03-12T02:26:13;8.90;;;5.57;;
70733;SDS011;58320;48.804;9.252;2023-03-12T02:28:40;11.20;;;5.80;;
70733;SDS011;58320;48.804;9.252;2023-03-12T02:31:08;10.43;;;4.93;;
70733;SDS011;58320;48.804;9.252;2023-03-12T02:33:38;12.93;;;5.72;;
70733;SDS011;58320;48.804;9.252;2023-03-12T02:36:04;9.25;;;5.10;;
70733;SDS011;58320;48.804;9.252;2023-03-12T02:46:47;9.80;;;5.30;;
70733;SDS011;58320;48.804;9.252;2023-03-12T02:49:17;8.65;;;4.28;;
70733;SDS011;58320;48.804;9.252;2023-03-12T02:51:45;8.65;;;5.05;;
70733;SDS011;58320;48.804;9.252;2023-03-12T02:54:11;11.33;;;5.33;;
70733;SDS011;58320;48.804;9.252;2023-03-12T02:56:39;10.45;;;5.18;;
70733;SDS011;58320;48.804;9.252;2023-03-12T02:59:06;8.93;;;5.35;;
70733;SDS011;58320;48.804;9.252;2023-03-12T03:01:33;10.40;;;5.90;;
70733;SDS011;58320;48.804;9.252;2023-03-12T03:04:00;9.48;;;4.90;;
70733;SDS011;58320;48.804;9.252;2023-03-12T03:06:27;9.93;;;5.90;;
70733;SDS011;58320;48.804;9.252;2023-03-12T03:08:54;10.85;;;5.80;;
70733;SDS011;58320;48.804;9.252;2023-03-12T03:11:20;12.63;;;6.40;;
70733;SDS011;58320;48.804;9.252;2023-03-12T03:13:48;12.43;;;6.00;;
70733;SDS011;58320;48.804;9.252;2023-03-12T03:16:18;10.90;;;6.35;;
70733;SDS011;58320;48.804;9.252;2023-03-12T03:18:45;10.97;;;6.70;;
70733;SDS011;58320;48.804;9.252;2023-03-12T03:21:11;14.32;;;7.13;;
70733;SDS011;58320;48.804;9.252;2023-03-12T03:23:41;10.30;;;6.57;;
70733;SDS011;58320;48.804;9.252;2023-03-12T03:26:11;12.27;;;7.30;;
70733;SDS011;58320;48.804;9.252;2023-03-12T03:28:38;13.30;;;6.90;;
70733;SDS011;58320;48.804;9.252;2023-03-12T03:31:04;13.73;;;6.70;;
70733;SDS011;58320;48.804;9.252;2023-03-12T03:33:32;11.80;;;6.30;;
70733;SDS011;58320;48.804;9.252;2023-03-12T03:36:01;14.30;;;6.40;;
70733;SDS011;58320;48.804;9.252;2023-03-12T03:38:28;9.77;;;5.97;;
70733;SDS011;58320;48.804;9.252;2023-03-12T03:40:55;11.32;;;6.50;;
70733;SDS011;58320;48.804;9.252;2023-03-12T03:43:21;14.50;;;6.00;;
70733;SDS011;58320;48.804;9.252;2023-03-12T03:45:48;9.73;;;5.78;;
70733;SDS011;58320;48.804;9.252;2023-03-12T03:48:21;10.90;;;6.07;;
70733;SDS011;58320;48.804;9.252;2023-03-12T03:50:47;10.23;;;6.03;;
70733;SDS011;58320;48.804;9.252;2023-03-12T03:53:13;9.88;;;5.85;;
70733;SDS011;58320;48.804;9.252;2023-03-12T03:55:39;11.93;;;6.20;;
70733;SDS011;58320;48.804;9.252;2023-03-12T03:58:05;11.77;;;5.90;;
70733;SDS011;58320;48.804;9.252;2023-03-12T04:00:31;12.65;;;6.10;;
70733;SDS011;58320;48.804;9.252;2023-03-12T04:02:58;10.18;;;6.25;;
70733;SDS011;58320;48.804;9.252;2023-03-12T04:05:23;11.52;;;6.18;;
70733;SDS011;58320;48.804;9.252;2023-03-12T04:07:53;11.53;;;6.30;;
70733;SDS011;58320;48.804;9.252;2023-03-12T04:10:21;9.85;;;5.45;;
70733;SDS011;58320;48.804;9.252;2023-03-12T04:12:48;11.25;;;6.60;;
70733;SDS011;58320;48.804;9.252;2023-03-12T04:15:15;13.20;;;6.85;;
70733;SDS011;58320;48.804;9.252;2023-03-12T04:17:41;12.90;;;6.35;;
70733;SDS011;58320;48.804;9.252;2023-03-12T04:20:07;11.03;;;6.20;;
70733;SDS011;58320;48.804;9.252;2023-03-12T04:22:35;11.00;;;5.47;;
70733;SDS011;58320;48.804;9.252;2023-03-12T04:25:01;11.43;;;5.55;;
70733;SDS011;58320;48.804;9.252;2023-03-12T04:27:27;10.33;;;5.73;;
70733;SDS011;58320;48.804;9.252;2023-03-12T04:29:53;12.23;;;5.80;;
70733;SDS011;58320;48.804;9.252;2023-03-12T04:32:19;9.43;;;5.53;;
70733;SDS011;58320;48.804;9.252;2023-03-12T04:34:45;11.03;;;5.60;;
70733;SDS011;58320;48.804;9.252;2023-03-12T04:37:11;11.10;;;5.65;;
70733;SDS011;58320;48.804;9.252;2023-03-12T04:39:40;10.30;;;6.10;;
70733;SDS011;58320;48.804;9.252;2023-03-12T04:42:07;11.67;;;6.33;;
70733;SDS011;58320;48.804;9.252;2023-03-12T04:44:34;11.18;;;6.05;;
70733;SDS011;58320;48.804;9.252;2023-03-12T04:47:00;12.60;;;5.90;;
70733;SDS011;58320;48.804;9.252;2023-03-12T04:49:25;10.50;;;6.13;;
70733;SDS011;58320;48.804;9.252;2023-03-12T04:51:51;10.57;;;5.70;;
70733;SDS011;58320;48.804;9.252;2023-03-12T04:54:17;10.32;;;5.32;;
70733;SDS011;58320;48.804;9.252;2023-03-12T04:56:45;11.57;;;5.70;;
70733;SDS011;58320;48.804;9.252;2023-03-12T04:59:11;10.43;;;6.10;;
70733;SDS011;58320;48.804;9.252;2023-03-12T05:01:38;10.63;;;5.90;;
70733;SDS011;58320;48.804;9.252;2023-03-12T05:04:04;8.93;;;5.93;;
70733;SDS011;58320;48.804;9.252;2023-03-12T05:06:30;13.43;;;5.60;;
70733;SDS011;58320;48.804;9.252;2023-03-12T05:08:57;8.63;;;5.07;;
70733;SDS011;58320;48.804;9.252;2023-03-12T05:11:23;10.97;;;6.00;;
70733;SDS011;58320;48.804;9.252;2023-03-12T05:13:49;9.55;;;5.85;;
70733;SDS011;58320;48.804;9.252;2023-03-12T05:16:15;7.75;;;4.93;;
70733;SDS011;58320;48.804;9.252;2023-03-12T05:18:42;11.70;;;5.45;;
70733;SDS011;58320;48.804;9.252;2023-03-12T05:21:11;10.47;;;6.10;;
70733;SDS011;58320;48.804;9.252;2023-03-12T05:23:39;8.60;;;4.82;;
70733;SDS011;58320;48.804;9.252;2023-03-12T05:26:06;9.93;;;5.45;;
70733;SDS011;58320;48.804;9.252;2023-03-12T05:29:08;9.30;;;4.75;;
70733;SDS011;58320;48.804;9.252;2023-03-12T05:31:34;9.60;;;4.82;;
70733;SDS011;58320;48.804;9.252;2023-03-12T05:34:01;10.13;;;4.73;;
70733;SDS011;58320;48.804;9.252;2023-03-12T05:36:28;7.80;;;4.80;;
70733;SDS011;58320;48.804;9.252;2023-03-12T05:38:53;9.30;;;5.60;;
70733;SDS011;58320;48.804;9.252;2023-03-12T05:41:21;15.20;;;5.30;;
70733;SDS011;58320;48.804;9.252;2023-03-12T05:43:51;9.00;;;4.65;;
70733;SDS011;58320;48.804;9.252;2023-03-12T05:46:18;11.13;;;5.30;;
70733;SDS011;58320;48.804;9.252;2023-03-12T05:48:43;9.68;;;4.95;;
70733;SDS011;58320;48.804;9.252;2023-03-12T05:51:09;9.07;;;5.20;;
70733;SDS011;58320;48.804;9.252;2023-03-12T05:53:35;8.95;;;5.25;;
70733;SDS011;58320;48.804;9.252;2023-03-12T05:56:04;7.47;;;5.00;;
70733;SDS011;58320;48.804;9.252;2023-03-12T05:58:33;10.30;;;5.50;;
70733;SDS011;58320;48.804;9.252;2023-03-12T06:01:00;8.10;;;4.80;;
70733;SDS011;58320;48.804;9.252;2023-03-12T06:03:26;10.10;;;4.90;;
70733;SDS011;58320;48.804;9.252;2023-03-12T06:05:52;8.57;;;4.73;;
70733;SDS011;58320;48.804;9.252;2023-03-12T06:08:21;8.82;;;4.95;;
70733;SDS011;58320;48.804;9.252;2023-03-12T06:10:51;11.15;;;5.20;;
70733;SDS011;58320;48.804;9.252;2023-03-12T06:13:19;12.45;;;4.97;;
70733;SDS011;58320;48.804;9.252;2023-03-12T06:15:46;7.82;;;4.90;;
70733;SDS011;58320;48.804;9.252;2023-03-12T06:18:13;7.87;;;5.30;;
70733;SDS011;58320;48.804;9.252;2023-03-12T06:20:39;11.10;;;5.03;;
70733;SDS011;58320;48.804;9.252;2023-03-12T06:23:05;9.32;;;5.32;;
70733;SDS011;58320;48.804;9.252;2023-03-12T06:25:31;9.63;;;5.23;;
70733;SDS011;58320;48.804;9.252;2023-03-12T06:27:57;9.40;;;5.40;;
70733;SDS011;58320;48.804;9.252;2023-03-12T06:30:22;11.60;;;6.00;;
70733;SDS011;58320;48.804;9.252;2023-03-12T06:32:48;13.10;;;6.07;;
70733;SDS011;58320;48.804;9.252;2023-03-12T06:35:14;12.02;;;6.13;;
70733;SDS011;58320;48.804;9.252;2023-03-12T06:37:40;9.98;;;5.80;;
70733;SDS011;58320;48.804;9.252;2023-03-12T06:40:05;10.90;;;5.97;;
70733;SDS011;58320;48.804;9.252;2023-03-12T06:42:34;11.10;;;5.55;;
70733;SDS011;58320;48.804;9.252;2023-03-12T06:45:00;9.40;;;5.55;;
70733;SDS011;58320;48.804;9.252;2023-03-12T06:47:26;13.23;;;6.45;;
70733;SDS011;58320;48.804;9.252;2023-03-12T06:49:52;12.23;;;5.90;;
70733;SDS011;58320;48.804;9.252;2023-03-12T06:52:18;11.82;;;5.85;;
70733;SDS011;58320;48.804;9.252;2023-03-12T06:54:43;12.17;;;6.10;;
70733;SDS011;58320;48.804;9.252;2023-03-12T06:57:09;12.50;;;6.50;;
70733;SDS011;58320;48.804;9.252;2023-03-12T06:59:35;11.60;;;6.30;;
70733;SDS011;58320;48.804;9.252;2023-03-12T07:02:01;12.18;;;7.63;;
70733;SDS011;58320;48.804;9.252;2023-03-12T07:04:26;10.60;;;6.83;;
70733;SDS011;58320;48.804;9.252;2023-03-12T07:06:52;11.10;;;7.03;;
70733;SDS011;58320;48.804;9.252;2023-03-12T07:09:18;12.07;;;6.47;;
70733;SDS011;58320;48.804;9.252;2023-03-12T07:11:44;11.88;;;6.43;;
70733;SDS011;58320;48.804;9.252;2023-03-12T07:14:10;9.55;;;6.78;;
70733;SDS011;58320;48.804;9.252;2023-03-12T07:16:36;15.55;;;6.80;;
70733;SDS011;58320;48.804;9.252;2023-03-12T07:19:02;11.73;;;5.83;;
70733;SDS011;58320;48.804;9.252;2023-03-12T07:21:28;10.98;;;6.78;;
70733;SDS011;58320;48.804;9.252;2023-03-12T07:23:55;13.75;;;6.53;;
70733;SDS011;58320;48.804;9.252;2023-03-12T07:26:21;10.88;;;6.25;;
70733;SDS011;58320;48.804;9.252;2023-03-12T07:28:49;10.85;;;6.68;;
70733;SDS011;58320;48.804;9.252;2023-03-12T07:31:14;10.47;;;6.03;;
70733;SDS011;58320;48.804;9.252;2023-03-12T07:33:40;11.73;;;6.00;;
70733;SDS011;58320;48.804;9.252;2023-03-12T07:36:06;11.50;;;6.00;;
70733;SDS011;58320;48.804;9.252;2023-03-12T07:38:32;10.32;;;6.28;;
70733;SDS011;58320;48.804;9.252;2023-03-12T07:40:58;9.80;;;6.30;;
70733;SDS011;58320;48.804;9.252;2023-03-12T07:43:24;9.60;;;6.10;;
70733;SDS011;58320;48.804;9.252;2023-03-12T07:45:50;8.93;;;5.70;;
70733;SDS011;58320;48.804;9.252;2023-03-12T07:48:16;20.77;;;8.60;;
70733;SDS011;58320;48.804;9.252;2023-03-12T07:50:45;16.02;;;8.25;;
70733;SDS011;58320;48.804;9.252;2023-03-12T07:53:11;9.33;;;5.97;;
70733;SDS011;58320;48.804;9.252;2023-03-12T07:55:37;11.13;;;6.80;;
70733;SDS011;58320;48.804;9.252;2023-03-12T07:58:03;12.77;;;8.53;;
70733;SDS011;58320;48.804;9.252;2023-03-12T08:00:29;15.82;;;12.35;;
70733;SDS011;58320;48.804;9.252;2023-03-12T08:02:55;11.48;;;7.13;;
70733;SDS011;58320;48.804;9.252;2023-03-12T08:05:21;10.73;;;7.03;;
70733;SDS011;58320;48.804;9.252;2023-03-12T08:07:49;11.13;;;7.47;;
70733;SDS011;58320;48.804;9.252;2023-03-12T08:10:16;9.65;;;5.93;;
70733;SDS011;58320;48.804;9.252;2023-03-12T08:12:43;10.95;;;6.88;;
70733;SDS011;58320;48.804;9.252;2023-03-12T08:15:09;11.73;;;6.47;;
70733;SDS011;58320;48.804;9.252;2023-03-12T08:17:36;14.07;;;6.33;;
70733;SDS011;58320;48.804;9.252;2023-03-12T08:20:03;9.65;;;6.15;;
70733;SDS011;58320;48.804;9.252;2023-03-12T08:22:33;12.52;;;6.32;;
70733;SDS011;58320;48.804;9.252;2023-03-12T08:25:00;10.45;;;5.53;;
70733;SDS011;58320;48.804;9.252;2023-03-12T08:27:26;11.60;;;6.30;;
70733;SDS011;58320;48.804;9.252;2023-03-12T08:29:52;9.97;;;6.57;;
70733;SDS011;58320;48.804;9.252;2023-03-12T08:32:18;13.65;;;6.47;;
70733;SDS011;58320;48.804;9.252;2023-03-12T08:34:43;11.77;;;6.33;;
70733;SDS011;58320;48.804;9.252;2023-03-12T08:37:09;11.73;;;5.95;;
70733;SDS011;58320;48.804;9.252;2023-03-12T08:39:35;14.35;;;8.23;;
70733;SDS011;58320;48.804;9.252;2023-03-12T08:42:01;11.93;;;7.83;;
70733;SDS011;58320;48.804;9.252;2023-03-12T08:44:27;12.05;;;7.00;;
70733;SDS011;58320;48.804;9.252;2023-03-12T08:46:53;12.68;;;7.57;;
70733;SDS011;58320;48.804;9.252;2023-03-12T08:49:20;13.10;;;7.22;;
70733;SDS011;58320;48.804;9.252;2023-03-12T08:51:46;12.03;;;7.00;;
70733;SDS011;58320;48.804;9.252;2023-03-12T08:54:13;13.52;;;7.43;;
70733;SDS011;58320;48.804;9.252;2023-03-12T08:56:39;10.65;;;6.63;;
70733;SDS011;58320;48.804;9.252;2023-03-12T08:59:08;14.48;;;7.72;;
70733;SDS011;58320;48.804;9.252;2023-03-12T09:01:37;10.50;;;6.80;;
70733;SDS011;58320;48.804;9.252;2023-03-12T09:04:04;15.25;;;7.22;;
70733;SDS011;58320;48.804;9.252;2023-03-12T09:06:30;15.85;;;8.20;;
70733;SDS011;58320;48.804;9.252;2023-03-12T09:08:59;12.60;;;7.07;;
70733;SDS011;58320;48.804;9.252;2023-03-12T09:11:29;11.88;;;6.68;;
70733;SDS011;58320;48.804;9.252;2023-03-12T09:13:57;10.83;;;6.60;;
70733;SDS011;58320;48.804;9.252;2023-03-12T09:16:23;12.20;;;6.78;;
70733;SDS011;58320;48.804;9.252;2023-03-12T09:18:49;11.23;;;7.72;;
70733;SDS011;58320;48.804;9.252;2023-03-12T09:21:15;12.05;;;7.97;;
70733;SDS011;58320;48.804;9.252;2023-03-12T09:23:40;11.17;;;6.70;;
70733;SDS011;58320;48.804;9.252;2023-03-12T09:26:10;11.93;;;6.93;;
70733;SDS011;58320;48.804;9.252;2023-03-12T09:28:36;13.37;;;7.83;;
70733;SDS011;58320;48.804;9.252;2023-03-12T09:31:03;11.65;;;7.07;;
70733;SDS011;58320;48.804;9.252;2023-03-12T09:33:29;14.10;;;7.72;;
70733;SDS011;58320;48.804;9.252;2023-03-12T09:35:58;12.88;;;7.43;;
70733;SDS011;58320;48.804;9.252;2023-03-12T09:38:25;10.77;;;6.73;;
70733;SDS011;58320;48.804;9.252;2023-03-12T09:40:51;11.50;;;7.20;;
70733;SDS011;58320;48.804;9.252;2023-03-12T09:45:48;11.90;;;7.68;;
70733;SDS011;58320;48.804;9.252;2023-03-12T09:48:27;12.27;;;7.32;;
70733;SDS011;58320;48.804;9.252;2023-03-12T09:51:00;11.30;;;6.83;;
70733;SDS011;58320;48.804;9.252;2023-03-12T09:53:45;11.57;;;6.68;;
70733;SDS011;58320;48.804;9.252;2023-03-12T09:56:16;12.23;;;7.47;;
70733;SDS011;58320;48.804;9.252;2023-03-12T09:58:45;14.13;;;7.53;;
70733;SDS011;58320;48.804;9.252;2023-03-12T10:10:16;11.35;;;6.90;;
70733;SDS011;58320;48.804;9.252;2023-03-12T10:21:12;10.13;;;6.63;;
70733;SDS011;58320;48.804;9.252;2023-03-12T10:26:56;12.38;;;7.00;;
70733;SDS011;58320;48.804;9.252;2023-03-12T10:31:59;9.20;;;5.43;;
70733;SDS011;58320;48.804;9.252;2023-03-12T10:35:24;8.95;;;5.40;;
70733;SDS011;58320;48.804;9.252;2023-03-12T10:37:46;10.70;;;6.25;;
70733;SDS011;58320;48.804;9.252;2023-03-12T10:40:23;10.13;;;5.57;;
70733;SDS011;58320;48.804;9.252;2023-03-12T10:42:52;8.15;;;4.60;;
70733;SDS011;58320;48.804;9.252;2023-03-12T10:47:55;9.80;;;5.00;;
70733;SDS011;58320;48.804;9.252;2023-03-12T10:50:27;7.80;;;4.63;;
70733;SDS011;58320;48.804;9.252;2023-03-12T10:56:10;8.43;;;4.65;;
70733;SDS011;58320;48.804;9.252;2023-03-12T11:01:20;10.30;;;4.65;;
70733;SDS011;58320;48.804;9.252;2023-03-12T11:03:52;9.30;;;4.68;;
70733;SDS011;58320;48.804;9.252;2023-03-12T11:06:39;7.60;;;4.28;;
70733;SDS011;58320;48.804;9.252;2023-03-12T11:09:06;7.07;;;4.60;;
70733;SDS011;58320;48.804;9.252;2023-03-12T11:11:45;7.93;;;3.72;;
70733;SDS011;58320;48.804;9.252;2023-03-12T11:14:18;6.53;;;4.30;;
70733;SDS011;58320;48.804;9.252;2023-03-12T11:16:47;7.32;;;4.35;;
70733;SDS011;58320;48.804;9.252;2023-03-12T11:19:31;9.18;;;3.47;;
70733;SDS011;58320;48.804;9.252;2023-03-12T11:22:05;5.33;;;3.40;;
70733;SDS011;58320;48.804;9.252;2023-03-12T11:24:32;6.80;;;2.90;;
70733;SDS011;58320;48.804;9.252;2023-03-12T11:27:06;5.93;;;3.05;;
70733;SDS011;58320;48.804;9.252;2023-03-12T11:29:49;4.40;;;2.40;;
70733;SDS011;58320;48.804;9.252;2023-03-12T11:32:23;4.22;;;2.00;;
70733;SDS011;58320;48.804;9.252;2023-03-12T11:34:56;3.87;;;2.00;;
70733;SDS011;58320;48.804;9.252;2023-03-12T11:37:31;3.63;;;1.80;;
70733;SDS011;58320;48.804;9.252;2023-03-12T11:52:23;3.13;;;1.10;;
70733;SDS011;58320;48.804;9.252;2023-03-12T11:58:03;3.97;;;1.10;;
70733;SDS011;58320;48.804;9.252;2023-03-12T12:03:55;4.07;;;1.10;;
70733;SDS011;58320;48.804;9.252;2023-03-12T12:13:25;2.67;;;0.90;;
70733;SDS011;58320;48.804;9.252;2023-03-12T12:25:22;3.40;;;1.00;;
70733;SDS011;58320;48.804;9.252;2023-03-12T12:36:16;2.65;;;0.82;;
70733;SDS011;58320;48.804;9.252;2023-03-12T12:38:44;2.92;;;1.05;;
70733;SDS011;58320;48.804;9.252;2023-03-12T12:41:18;5.55;;;1.00;;
70733;SDS011;58320;48.804;9.252;2023-03-12T12:43:50;4.50;;;1.15;;
70733;SDS011;58320;48.804;9.252;2023-03-12T12:46:22;2.77;;;1.00;;
70733;SDS011;58320;48.804;9.252;2023-03-12T12:48:56;3.58;;;1.00;;
70733;SDS011;58320;48.804;9.252;2023-03-12T12:51:33;3.70;;;1.35;;
70733;SDS011;58320;48.804;9.252;2023-03-12T12:57:02;4.78;;;1.10;;
70733;SDS011;58320;48.804;9.252;2023-03-12T13:02:47;3.45;;;1.00;;
70733;SDS011;58320;48.804;9.252;2023-03-12T13:07:46;4.38;;;1.20;;
70733;SDS011;58320;48.804;9.252;2023-03-12T13:13:03;4.80;;;1.30;;
70733;SDS011;58320;48.804;9.252;2023-03-12T13:15:43;4.45;;;1.15;;
70733;SDS011;58320;48.804;9.252;2023-03-12T13:26:21;3.58;;;1.30;;
70733;SDS011;58320;48.804;9.252;2023-03-12T13:29:19;4.22;;;1.25;;
70733;SDS011;58320;48.804;9.252;2023-03-12T13:31:47;3.97;;;1.25;;
70733;SDS011;58320;48.804;9.252;2023-03-12T13:36:51;3.72;;;1.15;;
70733;SDS011;58320;48.804;9.252;2023-03-12T13:42:01;4.25;;;1.40;;
70733;SDS011;58320;48.804;9.252;2023-03-12T13:44:49;5.03;;;1.30;;
70733;SDS011;58320;48.804;9.252;2023-03-12T13:47:19;4.97;;;1.43;;
70733;SDS011;58320;48.804;9.252;2023-03-12T13:50:06;5.00;;;1.15;;
70733;SDS011;58320;48.804;9.252;2023-03-12T13:57:56;4.20;;;1.60;;
70733;SDS011;58320;48.804;9.252;2023-03-12T14:03:30;4.75;;;1.30;;
70733;SDS011;58320;48.804;9.252;2023-03-12T14:20:10;3.90;;;1.15;;
70733;SDS011;58320;48.804;9.252;2023-03-12T14:22:40;5.47;;;1.23;;
70733;SDS011;58320;48.804;9.252;2023-03-12T14:25:11;5.43;;;1.25;;
70733;SDS011;58320;48.804;9.252;2023-03-12T14:27:47;5.43;;;1.45;;
70733;SDS011;58320;48.804;9.252;2023-03-12T14:30:21;5.05;;;1.33;;
70733;SDS011;58320;48.804;9.252;2023-03-12T14:33:05;2.92;;;1.40;;
70733;SDS011;58320;48.804;9.252;2023-03-12T14:35:37;3.13;;;1.10;;
70733;SDS011;58320;48.804;9.252;2023-03-12T14:40:59;5.53;;;1.35;;
70733;SDS011;58320;48.804;9.252;2023-03-12T14:43:30;4.82;;;1.48;;
70733;SDS011;58320;48.804;9.252;2023-03-12T14:46:03;5.20;;;1.35;;
70733;SDS011;58320;48.804;9.252;2023-03-12T14:48:38;4.70;;;1.40;;
70733;SDS011;58320;48.804;9.252;2023-03-12T14:51:04;3.65;;;1.02;;
70733;SDS011;58320;48.804;9.252;2023-03-12T14:53:35;3.80;;;1.00;;
70733;SDS011;58320;48.804;9.252;2023-03-12T14:58:34;4.10;;;1.70;;
70733;SDS011;58320;48.804;9.252;2023-03-12T15:01:13;5.70;;;1.30;;
70733;SDS011;58320;48.804;9.252;2023-03-12T15:03:47;3.67;;;1.52;;
70733;SDS011;58320;48.804;9.252;2023-03-12T15:06:48;5.30;;;1.55;;
70733;SDS011;58320;48.804;9.252;2023-03-12T15:09:18;5.53;;;1.73;;
70733;SDS011;58320;48.804;9.252;2023-03-12T15:11:57;3.53;;;1.27;;
70733;SDS011;58320;48.804;9.252;2023-03-12T15:14:27;4.20;;;1.50;;
70733;SDS011;58320;48.804;9.252;2023-03-12T15:16:58;4.63;;;1.17;;
70733;SDS011;58320;48.804;9.252;2023-03-12T15:19:45;5.13;;;1.30;;
70733;SDS011;58320;48.804;9.252;2023-03-12T15:22:15;3.35;;;1.20;;
70733;SDS011;58320;48.804;9.252;2023-03-12T15:24:44;5.15;;;1.20;;
70733;SDS011;58320;48.804;9.252;2023-03-12T15:27:44;5.30;;;1.60;;
70733;SDS011;58320;48.804;9.252;2023-03-12T15:30:20;4.30;;;1.65;;
70733;SDS011;58320;48.804;9.252;2023-03-12T15:35:42;4.28;;;1.63;;
70733;SDS011;58320;48.804;9.252;2023-03-12T15:38:47;3.33;;;1.10;;
70733;SDS011;58320;48.804;9.252;2023-03-12T15:41:19;4.93;;;1.00;;
70733;SDS011;58320;48.804;9.252;2023-03-12T15:43:54;6.03;;;1.35;;
70733;SDS011;58320;48.804;9.252;2023-03-12T15:46:22;5.95;;;1.42;;
70733;SDS011;58320;48.804;9.252;2023-03-12T15:48:50;6.45;;;1.20;;
70733;SDS011;58320;48.804;9.252;2023-03-12T15:51:29;7.25;;;1.65;;
70733;SDS011;58320;48.804;9.252;2023-03-12T15:53:59;3.83;;;1.03;;
70733;SDS011;58320;48.804;9.252;2023-03-12T15:56:32;5.97;;;1.60;;
70733;SDS011;58320;48.804;9.252;2023-03-12T15:59:00;4.97;;;1.40;;
70733;SDS011;58320;48.804;9.252;2023-03-12T16:01:28;3.90;;;1.50;;
70733;SDS011;58320;48.804;9.252;2023-03-12T16:03:54;5.10;;;1.40;;
70733;SDS011;58320;48.804;9.252;2023-03-12T16:06:20;5.78;;;1.42;;
70733;SDS011;58320;48.804;9.252;2023-03-12T16:08:51;4.50;;;1.10;;
70733;SDS011;58320;48.804;9.252;2023-03-12T16:11:22;5.00;;;1.20;;
70733;SDS011;58320;48.804;9.252;2023-03-12T16:14:09;7.93;;;1.55;;
70733;SDS011;58320;48.804;9.252;2023-03-12T16:16:52;4.83;;;1.40;;
70733;SDS011;58320;48.804;9.252;2023-03-12T16:19:18;7.75;;;1.70;;
70733;SDS011;58320;48.804;9.252;2023-03-12T16:21:47;5.22;;;1.92;;
70733;SDS011;58320;48.804;9.252;2023-03-12T16:24:13;7.82;;;1.60;;
70733;SDS011;58320;48.804;9.252;2023-03-12T16:26:47;5.75;;;1.63;;
70733;SDS011;58320;48.804;9.252;2023-03-12T16:29:16;4.20;;;1.50;;
70733;SDS011;58320;48.804;9.252;2023-03-12T16:31:44;7.80;;;1.40;;
70733;SDS011;58320;48.804;9.252;2023-03-12T16:34:15;4.95;;;1.63;;
70733;SDS011;58320;48.804;9.252;2023-03-12T16:36:41;5.07;;;1.50;;
70733;SDS011;58320;48.804;9.252;2023-03-12T16:39:07;5.47;;;1.80;;
70733;SDS011;58320;48.804;9.252;2023-03-12T16:41:32;7.68;;;1.50;;
70733;SDS011;58320;48.804;9.252;2023-03-12T16:43:58;6.70;;;1.60;;
70733;SDS011;58320;48.804;9.252;2023-03-12T16:46:25;4.35;;;1.25;;
70733;SDS011;58320;48.804;9.252;2023-03-12T16:48:55;8.38;;;1.60;;
70733;SDS011;58320;48.804;9.252;2023-03-12T16:51:21;5.77;;;1.70;;
70733;SDS011;58320;48.804;9.252;2023-03-12T16:53:47;9.10;;;2.05;;
70733;SDS011;58320;48.804;9.252;2023-03-12T16:56:19;8.30;;;2.20;;
70733;SDS011;58320;48.804;9.252;2023-03-12T16:58:48;6.28;;;1.80;;
70733;SDS011;58320;48.804;9.252;2023-03-12T17:01:15;5.77;;;2.03;;
70733;SDS011;58320;48.804;9.252;2023-03-12T17:03:44;5.97;;;1.60;;
70733;SDS011;58320;48.804;9.252;2023-03-12T17:06:24;7.35;;;1.92;;
70733;SDS011;58320;48.804;9.252;2023-03-12T17:08:51;5.28;;;1.60;;
70733;SDS011;58320;48.804;9.252;2023-03-12T17:11:19;8.80;;;1.90;;
70733;SDS011;58320;48.804;9.252;2023-03-12T17:13:55;7.47;;;1.80;;
70733;SDS011;58320;48.804;9.252;2023-03-12T17:16:25;9.75;;;2.10;;
70733;SDS011;58320;48.804;9.252;2023-03-12T17:18:51;5.15;;;1.70;;
70733;SDS011;58320;48.804;9.252;2023-03-12T17:21:18;6.90;;;1.73;;
70733;SDS011;58320;48.804;9.252;2023-03-12T17:23:45;9.80;;;2.25;;